sensor_id;sensor_type;location;lat;lon;timestamp;pressure;altitude;pressure_sealevel;temperature;humidity
72636;BME280;60679;48.888;15.544;2023-02-01T00:01:45;96211.38;;;1.73;nan
72636;BME280;60679;48.888;15.544;2023-02-01T00:04:11;96200.94;;;1.72;nan
72636;BME280;60679;48.888;15.544;2023-02-01T00:06:36;96212.22;;;1.74;nan
72636;BME280;60679;48.888;15.544;2023-02-01T00:09:02;96205.22;;;1.73;nan
72636;BME280;60679;48.888;15.544;2023-02-01T00:11:27;96211.38;;;1.73;nan
72636;BME280;60679;48.888;15.544;2023-02-01T00:13:53;96206.25;;;1.72;nan
72636;BME280;60679;48.888;15.544;2023-02-01T00:16:21;96200.56;;;1.75;nan
72636;BME280;60679;48.888;15.544;2023-02-01T00:18:49;96198.06;;;1.73;nan
72636;BME280;60679;48.888;15.544;2023-02-01T00:21:17;96197.44;;;1.71;nan
72636;BME280;60679;48.888;15.544;2023-02-01T00:23:43;96200.09;;;1.71;nan
72636;BME280;60679;48.888;15.544;2023-02-01T00:26:18;96199.91;;;1.73;nan
72636;BME280;60679;48.888;15.544;2023-02-01T00:28:44;96205.56;;;1.70;nan
72636;BME280;60679;48.888;15.544;2023-02-01T00:31:10;96207.56;;;1.68;nan
72636;BME280;60679;48.888;15.544;2023-02-01T00:33:35;96202.44;;;1.66;nan
72636;BME280;60679;48.888;15.544;2023-02-01T00:36:03;96206.75;;;1.67;nan
72636;BME280;60679;48.888;15.544;2023-02-01T00:38:29;96198.59;;;1.69;nan
72636;BME280;60679;48.888;15.544;2023-02-01T00:43:33;96211.38;;;1.73;nan
72636;BME280;60679;48.888;15.544;2023-02-01T00:45:59;96208.06;;;1.71;nan
72636;BME280;60679;48.888;15.544;2023-02-01T00:48:24;96219.56;;;1.72;nan
72636;BME280;60679;48.888;15.544;2023-02-01T00:50:50;96209.91;;;1.71;nan
72636;BME280;60679;48.888;15.544;2023-02-01T00:53:16;96209.72;;;1.72;nan
72636;BME280;60679;48.888;15.544;2023-02-01T00:55:47;96212.91;;;1.68;nan
72636;BME280;60679;48.888;15.544;2023-02-01T00:58:12;96204.59;;;1.63;nan
72636;BME280;60679;48.888;15.544;2023-02-01T01:00:38;96203.59;;;1.64;nan
72636;BME280;60679;48.888;15.544;2023-02-01T01:03:03;96207.75;;;1.66;nan
72636;BME280;60679;48.888;15.544;2023-02-01T01:05:46;96209.25;;;1.69;nan
72636;BME280;60679;48.888;15.544;2023-02-01T01:08:12;96211.91;;;1.69;nan
72636;BME280;60679;48.888;15.544;2023-02-01T01:10:38;96208.72;;;1.73;nan
72636;BME280;60679;48.888;15.544;2023-02-01T01:13:03;96205.41;;;1.71;nan
72636;BME280;60679;48.888;15.544;2023-02-01T01:15:29;96205.91;;;1.67;nan
72636;BME280;60679;48.888;15.544;2023-02-01T01:17:55;96205.44;;;1.63;nan
72636;BME280;60679;48.888;15.544;2023-02-01T01:20:20;96198.25;;;1.64;nan
72636;BME280;60679;48.888;15.544;2023-02-01T01:22:47;96185.13;;;1.62;nan
72636;BME280;60679;48.888;15.544;2023-02-01T01:25:13;96190.63;;;1.61;nan
72636;BME280;60679;48.888;15.544;2023-02-01T01:27:38;96193.28;;;1.61;nan
72636;BME280;60679;48.888;15.544;2023-02-01T01:30:04;96192.63;;;1.59;nan
72636;BME280;60679;48.888;15.544;2023-02-01T01:32:30;96185.66;;;1.58;nan
72636;BME280;60679;48.888;15.544;2023-02-01T01:34:55;96196.13;;;1.59;nan
72636;BME280;60679;48.888;15.544;2023-02-01T01:37:21;96199.63;;;1.60;nan
72636;BME280;60679;48.888;15.544;2023-02-01T01:39:46;96206.94;;;1.58;nan
72636;BME280;60679;48.888;15.544;2023-02-01T01:42:11;96197.78;;;1.60;nan
72636;BME280;60679;48.888;15.544;2023-02-01T01:45:03;96204.28;;;1.58;nan
72636;BME280;60679;48.888;15.544;2023-02-01T01:47:49;96197.28;;;1.57;nan
72636;BME280;60679;48.888;15.544;2023-02-01T01:50:19;96194.63;;;1.57;nan
72636;BME280;60679;48.888;15.544;2023-02-01T01:52:49;96197.44;;;1.55;nan
72636;BME280;60679;48.888;15.544;2023-02-01T01:55:17;96191.13;;;1.56;nan
72636;BME280;60679;48.888;15.544;2023-02-01T01:57:47;96190.81;;;1.59;nan
72636;BME280;60679;48.888;15.544;2023-02-01T02:00:17;96186.31;;;1.60;nan
72636;BME280;60679;48.888;15.544;2023-02-01T02:02:46;96187.50;;;1.57;nan
72636;BME280;60679;48.888;15.544;2023-02-01T02:05:13;96183.69;;;1.52;nan
72636;BME280;60679;48.888;15.544;2023-02-01T02:07:46;96182.84;;;1.51;nan
72636;BME280;60679;48.888;15.544;2023-02-01T02:10:13;96183.50;;;1.53;nan
72636;BME280;60679;48.888;15.544;2023-02-01T02:12:41;96187.19;;;1.52;nan
72636;BME280;60679;48.888;15.544;2023-02-01T02:15:09;96190.50;;;1.54;nan
72636;BME280;60679;48.888;15.544;2023-02-01T02:28:56;96179.47;;;1.65;nan
72636;BME280;60679;48.888;15.544;2023-02-01T02:34:25;96185.28;;;1.77;nan
72636;BME280;60679;48.888;15.544;2023-02-01T02:39:34;96188.59;;;1.79;nan
72636;BME280;60679;48.888;15.544;2023-02-01T02:48:34;96192.09;;;1.71;nan
72636;BME280;60679;48.888;15.544;2023-02-01T02:51:10;96193.81;;;1.56;nan
72636;BME280;60679;48.888;15.544;2023-02-01T02:54:10;96197.63;;;1.54;nan
72636;BME280;60679;48.888;15.544;2023-02-01T02:56:56;96190.84;;;1.43;nan
72636;BME280;60679;48.888;15.544;2023-02-01T02:59:44;96192.50;;;1.36;nan
72636;BME280;60679;48.888;15.544;2023-02-01T03:02:30;96197.00;;;1.28;nan
72636;BME280;60679;48.888;15.544;2023-02-01T03:05:15;96196.84;;;1.29;nan
72636;BME280;60679;48.888;15.544;2023-02-01T03:13:15;96192.03;;;1.41;nan
72636;BME280;60679;48.888;15.544;2023-02-01T03:15:53;96197.34;;;1.41;nan
72636;BME280;60679;48.888;15.544;2023-02-01T03:18:30;96196.50;;;1.40;nan
72636;BME280;60679;48.888;15.544;2023-02-01T03:21:02;96199.97;;;1.49;nan
72636;BME280;60679;48.888;15.544;2023-02-01T03:23:34;96199.97;;;1.49;nan
72636;BME280;60679;48.888;15.544;2023-02-01T03:26:01;96201.47;;;1.51;nan
72636;BME280;60679;48.888;15.544;2023-02-01T03:28:29;96197.97;;;1.51;nan
72636;BME280;60679;48.888;15.544;2023-02-01T03:30:56;96195.16;;;1.52;nan
72636;BME280;60679;48.888;15.544;2023-02-01T03:33:24;96195.47;;;1.57;nan
72636;BME280;60679;48.888;15.544;2023-02-01T03:36:26;96202.78;;;1.55;nan
72636;BME280;60679;48.888;15.544;2023-02-01T03:39:06;96197.97;;;1.51;nan
72636;BME280;60679;48.888;15.544;2023-02-01T03:41:40;96198.31;;;1.48;nan
72636;BME280;60679;48.888;15.544;2023-02-01T03:44:20;96202.13;;;1.45;nan
72636;BME280;60679;48.888;15.544;2023-02-01T03:46:51;96202.97;;;1.46;nan
72636;BME280;60679;48.888;15.544;2023-02-01T03:49:30;96194.66;;;1.49;nan
72636;BME280;60679;48.888;15.544;2023-02-01T03:51:59;96200.63;;;1.51;nan
72636;BME280;60679;48.888;15.544;2023-02-01T03:54:29;96191.47;;;1.53;nan
72636;BME280;60679;48.888;15.544;2023-02-01T03:56:57;96191.66;;;1.52;nan
72636;BME280;60679;48.888;15.544;2023-02-01T03:59:24;96191.31;;;1.55;nan
72636;BME280;60679;48.888;15.544;2023-02-01T04:01:50;96190.63;;;1.53;nan
72636;BME280;60679;48.888;15.544;2023-02-01T04:04:16;96192.66;;;1.51;nan
72636;BME280;60679;48.888;15.544;2023-02-01T04:06:51;96192.16;;;1.47;nan
72636;BME280;60679;48.888;15.544;2023-02-01T04:09:16;96180.00;;;1.53;nan
72636;BME280;60679;48.888;15.544;2023-02-01T04:11:42;96177.03;;;1.48;nan
72636;BME280;60679;48.888;15.544;2023-02-01T04:14:07;96172.19;;;1.51;nan
72636;BME280;60679;48.888;15.544;2023-02-01T04:16:33;96157.91;;;1.52;nan
72636;BME280;60679;48.888;15.544;2023-02-01T04:18:59;96159.41;;;1.55;nan
72636;BME280;60679;48.888;15.544;2023-02-01T04:21:25;96162.88;;;1.63;nan
72636;BME280;60679;48.888;15.544;2023-02-01T04:23:51;96166.50;;;1.62;nan
72636;BME280;60679;48.888;15.544;2023-02-01T04:26:17;96184.16;;;1.63;nan
72636;BME280;60679;48.888;15.544;2023-02-01T04:28:42;96180.19;;;1.51;nan
72636;BME280;60679;48.888;15.544;2023-02-01T04:31:07;96188.91;;;1.21;nan
72636;BME280;60679;48.888;15.544;2023-02-01T04:33:33;96185.75;;;1.01;nan
72636;BME280;60679;48.888;15.544;2023-02-01T04:35:58;96175.78;;;0.87;nan
72636;BME280;60679;48.888;15.544;2023-02-01T04:38:24;96171.28;;;0.80;nan
72636;BME280;60679;48.888;15.544;2023-02-01T04:40:49;96167.97;;;0.78;nan
72636;BME280;60679;48.888;15.544;2023-02-01T04:43:16;96169.78;;;0.77;nan
72636;BME280;60679;48.888;15.544;2023-02-01T04:45:41;96162.84;;;0.76;nan
72636;BME280;60679;48.888;15.544;2023-02-01T04:48:06;96169.78;;;0.77;nan
72636;BME280;60679;48.888;15.544;2023-02-01T04:50:32;96165.97;;;0.80;nan
72636;BME280;60679;48.888;15.544;2023-02-01T04:52:57;96176.44;;;0.81;nan
72636;BME280;60679;48.888;15.544;2023-02-01T04:55:23;96172.13;;;0.80;nan
72636;BME280;60679;48.888;15.544;2023-02-01T04:57:48;96167.13;;;0.77;nan
72636;BME280;60679;48.888;15.544;2023-02-01T05:00:14;96158.84;;;0.72;nan
72636;BME280;60679;48.888;15.544;2023-02-01T05:02:39;96156.66;;;0.59;nan
72636;BME280;60679;48.888;15.544;2023-02-01T05:05:05;96154.50;;;0.47;nan
72636;BME280;60679;48.888;15.544;2023-02-01T05:07:30;96165.47;;;0.44;nan
72636;BME280;60679;48.888;15.544;2023-02-01T05:09:56;96166.94;;;0.46;nan
72636;BME280;60679;48.888;15.544;2023-02-01T05:12:21;96169.78;;;0.53;nan
72636;BME280;60679;48.888;15.544;2023-02-01T05:15:22;96151.53;;;0.58;nan
72636;BME280;60679;48.888;15.544;2023-02-01T05:17:47;96156.50;;;0.61;nan
72636;BME280;60679;48.888;15.544;2023-02-01T05:20:13;96152.19;;;0.68;nan
72636;BME280;60679;48.888;15.544;2023-02-01T05:22:38;96139.41;;;0.80;nan
72636;BME280;60679;48.888;15.544;2023-02-01T05:25:04;96142.22;;;0.86;nan
72636;BME280;60679;48.888;15.544;2023-02-01T05:27:30;96138.06;;;0.92;nan
72636;BME280;60679;48.888;15.544;2023-02-01T05:29:56;96145.06;;;0.93;nan
72636;BME280;60679;48.888;15.544;2023-02-01T05:32:21;96149.84;;;0.97;nan
72636;BME280;60679;48.888;15.544;2023-02-01T05:34:46;96150.84;;;0.96;nan
72636;BME280;60679;48.888;15.544;2023-02-01T05:37:12;96149.84;;;0.97;nan
72636;BME280;60679;48.888;15.544;2023-02-01T05:39:37;96150.03;;;1.04;nan
72636;BME280;60679;48.888;15.544;2023-02-01T05:42:03;96145.19;;;1.07;nan
72636;BME280;60679;48.888;15.544;2023-02-01T05:44:28;96130.75;;;1.10;nan
72636;BME280;60679;48.888;15.544;2023-02-01T05:46:54;96138.34;;;1.13;nan
72636;BME280;60679;48.888;15.544;2023-02-01T05:49:19;96134.22;;;1.19;nan
72636;BME280;60679;48.888;15.544;2023-02-01T05:51:45;96130.41;;;1.21;nan
72636;BME280;60679;48.888;15.544;2023-02-01T05:54:10;96136.19;;;1.25;nan
72636;BME280;60679;48.888;15.544;2023-02-01T05:56:36;96129.34;;;1.30;nan
72636;BME280;60679;48.888;15.544;2023-02-01T05:59:01;96128.88;;;1.27;nan
72636;BME280;60679;48.888;15.544;2023-02-01T06:01:27;96136.38;;;1.23;nan
72636;BME280;60679;48.888;15.544;2023-02-01T06:03:52;96139.53;;;1.19;nan
72636;BME280;60679;48.888;15.544;2023-02-01T06:06:17;96131.41;;;1.12;nan
72636;BME280;60679;48.888;15.544;2023-02-01T06:08:46;96127.59;;;1.06;nan
72636;BME280;60679;48.888;15.544;2023-02-01T06:11:11;96121.13;;;1.01;nan
72636;BME280;60679;48.888;15.544;2023-02-01T06:13:38;96128.06;;;1.02;nan
72636;BME280;60679;48.888;15.544;2023-02-01T06:16:04;96124.75;;;1.00;nan
72636;BME280;60679;48.888;15.544;2023-02-01T06:18:31;96117.44;;;1.02;nan
72636;BME280;60679;48.888;15.544;2023-02-01T06:20:58;96129.25;;;0.99;nan
72636;BME280;60679;48.888;15.544;2023-02-01T06:23:25;96128.56;;;1.05;nan
72636;BME280;60679;48.888;15.544;2023-02-01T06:26:02;96128.09;;;1.10;nan
72636;BME280;60679;48.888;15.544;2023-02-01T06:28:29;96136.06;;;1.10;nan
72636;BME280;60679;48.888;15.544;2023-02-01T06:30:54;96148.53;;;1.09;nan
72636;BME280;60679;48.888;15.544;2023-02-01T06:33:20;96139.38;;;1.12;nan
72636;BME280;60679;48.888;15.544;2023-02-01T06:35:45;96149.19;;;1.11;nan
72636;BME280;60679;48.888;15.544;2023-02-01T06:38:12;96147.34;;;1.12;nan
72636;BME280;60679;48.888;15.544;2023-02-01T06:40:39;96162.47;;;1.11;nan
72636;BME280;60679;48.888;15.544;2023-02-01T06:43:04;96150.84;;;1.12;nan
72636;BME280;60679;48.888;15.544;2023-02-01T06:45:30;96151.31;;;1.16;nan
72636;BME280;60679;48.888;15.544;2023-02-01T06:47:55;96162.44;;;1.20;nan
72636;BME280;60679;48.888;15.544;2023-02-01T06:50:21;96159.78;;;1.20;nan
72636;BME280;60679;48.888;15.544;2023-02-01T06:52:46;96148.16;;;1.21;nan
72636;BME280;60679;48.888;15.544;2023-02-01T06:55:11;96150.19;;;1.19;nan
72636;BME280;60679;48.888;15.544;2023-02-01T06:57:38;96151.50;;;1.14;nan
72636;BME280;60679;48.888;15.544;2023-02-01T07:00:03;96137.03;;;1.17;nan
72636;BME280;60679;48.888;15.544;2023-02-01T07:02:29;96152.81;;;1.27;nan
72636;BME280;60679;48.888;15.544;2023-02-01T07:04:54;96156.78;;;1.31;nan
72636;BME280;60679;48.888;15.544;2023-02-01T07:07:20;96137.19;;;1.32;nan
72636;BME280;60679;48.888;15.544;2023-02-01T07:09:48;96132.00;;;1.30;nan
72636;BME280;60679;48.888;15.544;2023-02-01T07:12:13;96138.66;;;1.34;nan
72636;BME280;60679;48.888;15.544;2023-02-01T07:14:39;96135.66;;;1.37;nan
72636;BME280;60679;48.888;15.544;2023-02-01T07:17:04;96129.66;;;1.43;nan
72636;BME280;60679;48.888;15.544;2023-02-01T07:19:29;96126.47;;;1.48;nan
72636;BME280;60679;48.888;15.544;2023-02-01T07:21:55;96131.97;;;1.54;nan
72636;BME280;60679;48.888;15.544;2023-02-01T07:24:20;96127.25;;;1.64;nan
72636;BME280;60679;48.888;15.544;2023-02-01T07:26:46;96121.25;;;1.70;nan
72636;BME280;60679;48.888;15.544;2023-02-01T07:29:13;96112.28;;;1.71;nan
72636;BME280;60679;48.888;15.544;2023-02-01T07:31:38;96088.63;;;1.77;nan
72636;BME280;60679;48.888;15.544;2023-02-01T07:34:03;96091.25;;;1.85;nan
72636;BME280;60679;48.888;15.544;2023-02-01T07:36:29;96097.19;;;1.95;nan
72636;BME280;60679;48.888;15.544;2023-02-01T07:38:55;96103.81;;;1.99;nan
72636;BME280;60679;48.888;15.544;2023-02-01T07:41:20;96099.84;;;1.95;nan
72636;BME280;60679;48.888;15.544;2023-02-01T07:43:46;96105.88;;;1.89;nan
72636;BME280;60679;48.888;15.544;2023-02-01T07:46:12;96106.22;;;1.86;nan
72636;BME280;60679;48.888;15.544;2023-02-01T07:48:37;96095.88;;;1.91;nan
72636;BME280;60679;48.888;15.544;2023-02-01T07:51:05;96107.00;;;1.94;nan
72636;BME280;60679;48.888;15.544;2023-02-01T07:53:32;96097.84;;;1.97;nan
72636;BME280;60679;48.888;15.544;2023-02-01T07:55:58;96089.50;;;2.00;nan
72636;BME280;60679;48.888;15.544;2023-02-01T07:58:24;96093.28;;;2.05;nan
72636;BME280;60679;48.888;15.544;2023-02-01T08:00:50;96089.16;;;2.03;nan
72636;BME280;60679;48.888;15.544;2023-02-01T08:03:35;96087.84;;;1.99;nan
72636;BME280;60679;48.888;15.544;2023-02-01T08:06:00;96091.31;;;1.99;nan
72636;BME280;60679;48.888;15.544;2023-02-01T08:08:25;96094.34;;;1.96;nan
72636;BME280;60679;48.888;15.544;2023-02-01T08:10:51;96100.31;;;1.98;nan
72636;BME280;60679;48.888;15.544;2023-02-01T08:13:16;96099.81;;;2.03;nan
72636;BME280;60679;48.888;15.544;2023-02-01T08:15:41;96109.31;;;1.97;nan
72636;BME280;60679;48.888;15.544;2023-02-01T08:18:07;96105.38;;;1.85;nan
72636;BME280;60679;48.888;15.544;2023-02-01T08:20:33;96106.28;;;1.69;nan
72636;BME280;60679;48.888;15.544;2023-02-01T08:23:01;96108.31;;;1.59;nan
72636;BME280;60679;48.888;15.544;2023-02-01T08:25:27;96092.06;;;1.54;nan
72636;BME280;60679;48.888;15.544;2023-02-01T08:27:53;96076.34;;;1.67;nan
72636;BME280;60679;48.888;15.544;2023-02-01T08:30:19;96075.34;;;1.68;nan
72636;BME280;60679;48.888;15.544;2023-02-01T08:32:45;96082.78;;;1.42;nan
72636;BME280;60679;48.888;15.544;2023-02-01T08:35:10;96092.47;;;1.35;nan
72636;BME280;60679;48.888;15.544;2023-02-01T08:37:36;96091.94;;;1.40;nan
72636;BME280;60679;48.888;15.544;2023-02-01T08:40:02;96084.91;;;1.47;nan
72636;BME280;60679;48.888;15.544;2023-02-01T08:42:28;96090.03;;;1.56;nan
72636;BME280;60679;48.888;15.544;2023-02-01T08:45:12;96077.22;;;1.60;nan
72636;BME280;60679;48.888;15.544;2023-02-01T08:47:38;96070.88;;;1.61;nan
72636;BME280;60679;48.888;15.544;2023-02-01T08:50:04;96073.66;;;1.75;nan
72636;BME280;60679;48.888;15.544;2023-02-01T08:52:29;96066.25;;;1.94;nan
72636;BME280;60679;48.888;15.544;2023-02-01T08:54:55;96067.16;;;2.09;nan
72636;BME280;60679;48.888;15.544;2023-02-01T08:57:20;96059.75;;;2.19;nan
72636;BME280;60679;48.888;15.544;2023-02-01T08:59:46;96055.78;;;2.38;nan
72636;BME280;60679;48.888;15.544;2023-02-01T09:02:15;96050.75;;;2.43;nan
72636;BME280;60679;48.888;15.544;2023-02-01T09:04:41;96040.50;;;2.69;nan
72636;BME280;60679;48.888;15.544;2023-02-01T09:07:08;96040.31;;;2.56;nan
72636;BME280;60679;48.888;15.544;2023-02-01T09:09:33;96035.97;;;2.55;nan
72636;BME280;60679;48.888;15.544;2023-02-01T09:11:59;96041.84;;;2.50;nan
72636;BME280;60679;48.888;15.544;2023-02-01T09:14:24;96054.13;;;2.37;nan
72636;BME280;60679;48.888;15.544;2023-02-01T09:16:50;96050.69;;;2.28;nan
72636;BME280;60679;48.888;15.544;2023-02-01T09:19:15;96062.00;;;2.30;nan
72636;BME280;60679;48.888;15.544;2023-02-01T09:21:41;96061.44;;;2.12;nan
72636;BME280;60679;48.888;15.544;2023-02-01T09:24:06;96048.13;;;2.12;nan
72636;BME280;60679;48.888;15.544;2023-02-01T09:26:32;96038.06;;;2.45;nan
72636;BME280;60679;48.888;15.544;2023-02-01T09:28:57;96042.69;;;2.51;nan
72636;BME280;60679;48.888;15.544;2023-02-01T09:31:25;96034.16;;;2.32;nan
72636;BME280;60679;48.888;15.544;2023-02-01T09:33:51;96045.72;;;2.02;nan
72636;BME280;60679;48.888;15.544;2023-02-01T09:36:16;96052.63;;;1.89;nan
72636;BME280;60679;48.888;15.544;2023-02-01T09:38:44;96058.16;;;1.79;nan
72636;BME280;60679;48.888;15.544;2023-02-01T09:45:03;96042.28;;;1.63;nan
72636;BME280;60679;48.888;15.544;2023-02-01T09:46:57;96043.66;;;1.82;nan
72636;BME280;60679;48.888;15.544;2023-02-01T09:49:30;96038.78;;;2.16;nan
72636;BME280;60679;48.888;15.544;2023-02-01T09:51:57;96028.69;;;2.86;nan
72636;BME280;60679;48.888;15.544;2023-02-01T09:54:26;96027.94;;;4.01;nan
72636;BME280;60679;48.888;15.544;2023-02-01T09:57:00;96038.41;;;4.59;nan
72636;BME280;60679;48.888;15.544;2023-02-01T09:59:40;96028.41;;;4.68;nan
72636;BME280;60679;48.888;15.544;2023-02-01T10:02:20;96026.72;;;4.88;nan
72636;BME280;60679;48.888;15.544;2023-02-01T10:04:47;96023.34;;;4.80;nan
72636;BME280;60679;48.888;15.544;2023-02-01T10:07:37;96026.69;;;5.16;nan
72636;BME280;60679;48.888;15.544;2023-02-01T10:15:24;96028.31;;;4.40;nan
72636;BME280;60679;48.888;15.544;2023-02-01T10:18:09;96031.25;;;4.03;nan
72636;BME280;60679;48.888;15.544;2023-02-01T10:26:25;96023.44;;;3.66;nan
72636;BME280;60679;48.888;15.544;2023-02-01T10:28:54;96030.19;;;3.47;nan
72636;BME280;60679;48.888;15.544;2023-02-01T10:31:22;96025.84;;;3.46;nan
72636;BME280;60679;48.888;15.544;2023-02-01T10:33:52;96037.63;;;3.37;nan
72636;BME280;60679;48.888;15.544;2023-02-01T10:36:29;96052.75;;;3.30;nan
72636;BME280;60679;48.888;15.544;2023-02-01T10:39:00;96043.59;;;3.39;nan
72636;BME280;60679;48.888;15.544;2023-02-01T10:41:34;96050.81;;;3.38;nan
72636;BME280;60679;48.888;15.544;2023-02-01T10:44:00;96045.25;;;3.25;nan
72636;BME280;60679;48.888;15.544;2023-02-01T10:46:29;96058.06;;;3.15;nan
72636;BME280;60679;48.888;15.544;2023-02-01T10:48:56;96052.91;;;3.43;nan
72636;BME280;60679;48.888;15.544;2023-02-01T10:51:28;96047.72;;;4.06;nan
72636;BME280;60679;48.888;15.544;2023-02-01T10:54:03;96046.13;;;3.91;nan
72636;BME280;60679;48.888;15.544;2023-02-01T10:56:30;96037.88;;;3.71;nan
72636;BME280;60679;48.888;15.544;2023-02-01T10:59:02;96049.41;;;3.93;nan
72636;BME280;60679;48.888;15.544;2023-02-01T11:04:00;96051.47;;;3.76;nan
72636;BME280;60679;48.888;15.544;2023-02-01T11:06:35;96044.34;;;3.47;nan
72636;BME280;60679;48.888;15.544;2023-02-01T11:09:15;96040.88;;;3.47;nan
72636;BME280;60679;48.888;15.544;2023-02-01T11:14:27;96034.38;;;3.56;nan
72636;BME280;60679;48.888;15.544;2023-02-01T11:16:59;96037.06;;;3.56;nan
72636;BME280;60679;48.888;15.544;2023-02-01T11:19:27;96041.69;;;3.33;nan
72636;BME280;60679;48.888;15.544;2023-02-01T11:21:54;96041.59;;;3.26;nan
72636;BME280;60679;48.888;15.544;2023-02-01T11:24:33;96045.47;;;3.24;nan
72636;BME280;60679;48.888;15.544;2023-02-01T11:27:05;96044.78;;;2.92;nan
72636;BME280;60679;48.888;15.544;2023-02-01T11:29:59;96048.78;;;2.59;nan
72636;BME280;60679;48.888;15.544;2023-02-01T11:32:27;96040.03;;;2.51;nan
72636;BME280;60679;48.888;15.544;2023-02-01T11:34:55;96038.28;;;2.58;nan
72636;BME280;60679;48.888;15.544;2023-02-01T11:37:40;96039.75;;;2.60;nan
72636;BME280;60679;48.888;15.544;2023-02-01T11:42:58;96036.13;;;2.76;nan
72636;BME280;60679;48.888;15.544;2023-02-01T11:45:25;96030.97;;;2.74;nan
72636;BME280;60679;48.888;15.544;2023-02-01T11:47:55;96032.34;;;2.70;nan
72636;BME280;60679;48.888;15.544;2023-02-01T11:50:30;96027.47;;;2.74;nan
72636;BME280;60679;48.888;15.544;2023-02-01T11:58:31;96030.00;;;3.05;nan
72636;BME280;60679;48.888;15.544;2023-02-01T12:20:10;95981.25;;;6.70;nan
72636;BME280;60679;48.888;15.544;2023-02-01T12:23:01;95981.84;;;6.72;nan
72636;BME280;60679;48.888;15.544;2023-02-01T12:25:53;95974.00;;;6.44;nan
72636;BME280;60679;48.888;15.544;2023-02-01T12:28:42;95971.47;;;7.28;nan
72636;BME280;60679;48.888;15.544;2023-02-01T12:36:50;95966.22;;;7.52;nan
72636;BME280;60679;48.888;15.544;2023-02-01T12:44:50;95943.22;;;10.33;nan
72636;BME280;60679;48.888;15.544;2023-02-01T12:47:25;95937.25;;;11.94;nan
72636;BME280;60679;48.888;15.544;2023-02-01T12:52:55;95934.75;;;17.47;nan
72636;BME280;60679;48.888;15.544;2023-02-01T12:58:01;95928.34;;;16.36;nan
72636;BME280;60679;48.888;15.544;2023-02-01T13:00:37;95925.63;;;16.31;nan
72636;BME280;60679;48.888;15.544;2023-02-01T13:03:29;95922.66;;;17.99;nan
72636;BME280;60679;48.888;15.544;2023-02-01T13:06:35;95928.69;;;13.58;nan
72636;BME280;60679;48.888;15.544;2023-02-01T13:11:42;95936.91;;;8.58;nan
72636;BME280;60679;48.888;15.544;2023-02-01T13:16:49;95940.16;;;8.04;nan
72636;BME280;60679;48.888;15.544;2023-02-01T13:19:20;95931.13;;;9.22;nan
72636;BME280;60679;48.888;15.544;2023-02-01T13:21:50;95922.22;;;8.29;nan
72636;BME280;60679;48.888;15.544;2023-02-01T13:26:55;95940.97;;;13.82;nan
72636;BME280;60679;48.888;15.544;2023-02-01T13:29:21;95918.69;;;16.90;nan
72636;BME280;60679;48.888;15.544;2023-02-01T13:37:32;95936.19;;;9.84;nan
72636;BME280;60679;48.888;15.544;2023-02-01T13:42:51;95943.91;;;6.29;nan
72636;BME280;60679;48.888;15.544;2023-02-01T13:45:21;95957.47;;;5.54;nan
72636;BME280;60679;48.888;15.544;2023-02-01T13:47:50;95967.34;;;5.06;nan
72636;BME280;60679;48.888;15.544;2023-02-01T13:50:26;95962.41;;;4.75;nan
72636;BME280;60679;48.888;15.544;2023-02-01T13:53:21;95964.84;;;4.42;nan
72636;BME280;60679;48.888;15.544;2023-02-01T13:55:57;95972.34;;;4.32;nan
72636;BME280;60679;48.888;15.544;2023-02-01T13:58:38;95975.16;;;4.24;nan
72636;BME280;60679;48.888;15.544;2023-02-01T14:03:52;95970.34;;;4.41;nan
72636;BME280;60679;48.888;15.544;2023-02-01T14:09:17;95989.22;;;4.33;nan
72636;BME280;60679;48.888;15.544;2023-02-01T14:11:55;95995.81;;;4.16;nan
72636;BME280;60679;48.888;15.544;2023-02-01T14:19:23;95977.94;;;3.38;nan
72636;BME280;60679;48.888;15.544;2023-02-01T14:21:52;95952.19;;;3.66;nan
72636;BME280;60679;48.888;15.544;2023-02-01T14:24:27;95966.81;;;3.91;nan
72636;BME280;60679;48.888;15.544;2023-02-01T14:26:55;95968.47;;;3.92;nan
72636;BME280;60679;48.888;15.544;2023-02-01T14:29:33;95971.31;;;4.12;nan
72636;BME280;60679;48.888;15.544;2023-02-01T14:37:35;95968.41;;;4.07;nan
72636;BME280;60679;48.888;15.544;2023-02-01T14:40:16;95965.25;;;3.97;nan
72636;BME280;60679;48.888;15.544;2023-02-01T14:42:50;95959.25;;;3.74;nan
72636;BME280;60679;48.888;15.544;2023-02-01T14:47:44;95970.53;;;3.76;nan
72636;BME280;60679;48.888;15.544;2023-02-01T14:53:33;95966.88;;;3.77;nan
72636;BME280;60679;48.888;15.544;2023-02-01T14:58:05;95969.28;;;3.93;nan
72636;BME280;60679;48.888;15.544;2023-02-01T15:00:32;95983.59;;;3.85;nan
72636;BME280;60679;48.888;15.544;2023-02-01T15:03:22;95977.47;;;3.70;nan
72636;BME280;60679;48.888;15.544;2023-02-01T15:05:55;95982.19;;;3.68;nan
72636;BME280;60679;48.888;15.544;2023-02-01T15:08:28;95985.81;;;3.61;nan
72636;BME280;60679;48.888;15.544;2023-02-01T15:10:56;95989.66;;;3.58;nan
72636;BME280;60679;48.888;15.544;2023-02-01T15:13:28;95991.25;;;3.53;nan
72636;BME280;60679;48.888;15.544;2023-02-01T15:16:20;95982.94;;;3.47;nan
72636;BME280;60679;48.888;15.544;2023-02-01T15:18:47;96001.25;;;3.50;nan
72636;BME280;60679;48.888;15.544;2023-02-01T15:21:21;95997.97;;;3.48;nan
72636;BME280;60679;48.888;15.544;2023-02-01T15:23:47;95994.00;;;3.44;nan
72636;BME280;60679;48.888;15.544;2023-02-01T15:26:27;95996.34;;;3.33;nan
72636;BME280;60679;48.888;15.544;2023-02-01T15:28:54;95999.00;;;3.33;nan
72636;BME280;60679;48.888;15.544;2023-02-01T15:31:38;95995.78;;;3.23;nan
72636;BME280;60679;48.888;15.544;2023-02-01T15:34:06;95981.34;;;3.17;nan
72636;BME280;60679;48.888;15.544;2023-02-01T15:36:31;96004.63;;;3.23;nan
72636;BME280;60679;48.888;15.544;2023-02-01T15:39:20;96003.31;;;3.19;nan
72636;BME280;60679;48.888;15.544;2023-02-01T15:41:54;95995.97;;;3.07;nan
72636;BME280;60679;48.888;15.544;2023-02-01T15:47:24;96011.78;;;3.08;nan
72636;BME280;60679;48.888;15.544;2023-02-01T15:49:57;96019.88;;;3.00;nan
72636;BME280;60679;48.888;15.544;2023-02-01T15:52:36;96015.94;;;2.96;nan
72636;BME280;60679;48.888;15.544;2023-02-01T15:55:06;96011.59;;;2.95;nan